createdAt,value
2023-04-30T00:00:59.662Z,100142.72
2023-04-30T00:02:03.190Z,100142.06
2023-04-30T00:03:07.640Z,100133.72
2023-04-30T00:04:11.565Z,100137.42
2023-04-30T00:05:14.935Z,100134.86
2023-04-30T00:06:18.276Z,100131.27
2023-04-30T00:07:21.182Z,100135.91
2023-04-30T00:08:25.034Z,100131.36
2023-04-30T00:09:28.275Z,100130.27
2023-04-30T00:10:31.528Z,100141.16
2023-04-30T00:11:34.719Z,100141.45
2023-04-30T00:12:40.757Z,100137.18
2023-04-30T00:13:45.125Z,100137.18
2023-04-30T00:14:51.128Z,100133.45
2023-04-30T00:15:55.788Z,100138.88
2023-04-30T00:16:58.960Z,100137.80
2023-04-30T00:18:02.798Z,100138.88
2023-04-30T00:19:05.213Z,100137.18
2023-04-30T00:20:08.698Z,100134.72
2023-04-30T00:21:15.258Z,100130.93
2023-04-30T00:22:18.293Z,100132.50
2023-04-30T00:23:21.714Z,100131.41
2023-04-30T00:24:28.414Z,100126.77
2023-04-30T00:25:33.432Z,100129.52
2023-04-30T00:26:38.624Z,100129.52
2023-04-30T00:27:41.272Z,100133.67
2023-04-30T00:28:45.207Z,100129.32
2023-04-30T00:29:48.460Z,100127.47
2023-04-30T00:30:50.979Z,100121.09
2023-04-30T00:31:54.266Z,100115.79
2023-04-30T00:32:57.801Z,100111.44
2023-04-30T00:34:03.703Z,100112.95
2023-04-30T00:35:07.270Z,100107.94
2023-04-30T00:36:10.719Z,100102.20
2023-04-30T00:37:13.025Z,100106.84
2023-04-30T00:38:17.584Z,100110.44
2023-04-30T00:39:23.300Z,100100.78
2023-04-30T00:40:27.409Z,100103.24
2023-04-30T00:41:30.490Z,100100.59
2023-04-30T00:42:34.206Z,100101.25
2023-04-30T00:43:40.425Z,100098.98
2023-04-30T00:45:49.353Z,100093.69
2023-04-30T00:46:52.836Z,100092.92
2023-04-30T00:47:56.185Z,100093.88
2023-04-30T00:49:00.780Z,100095.05
2023-04-30T00:50:03.960Z,100100.44
2023-04-30T00:51:07.343Z,100091.27
2023-04-30T00:52:10.389Z,100099.97
2023-04-30T00:53:14.714Z,100092.33
2023-04-30T00:54:19.684Z,100097.51
2023-04-30T00:55:24.596Z,100088.08
2023-04-30T00:56:29.596Z,100087.79
2023-04-30T00:57:33.490Z,100089.30
2023-04-30T00:58:36.386Z,100088.27
2023-04-30T00:59:41.916Z,100082.48
2023-04-30T01:00:46.965Z,100091.95
2023-04-30T01:01:50.085Z,100078.90
2023-04-30T01:02:53.874Z,100082.05
2023-04-30T01:03:57.543Z,100080.87
2023-04-30T01:05:00.985Z,100084.70
2023-04-30T01:06:03.677Z,100086.77
2023-04-30T01:07:09.013Z,100084.31
2023-04-30T01:08:15.458Z,100085.47
2023-04-30T01:09:22.853Z,100083.77
2023-04-30T01:10:31.681Z,100084.72
2023-04-30T01:11:36.201Z,100072.42
2023-04-30T01:12:43.153Z,100079.95
2023-04-30T01:14:04.140Z,100080.90
2023-04-30T01:15:11.899Z,100076.55
2023-04-30T01:16:25.025Z,100076.95
2023-04-30T01:17:34.782Z,100073.36
2023-04-30T01:18:40.305Z,100071.47
2023-04-30T01:19:45.681Z,100075.73
2023-04-30T01:20:56.058Z,100072.52
2023-04-30T01:22:02.382Z,100070.80
2023-04-30T01:23:17.693Z,100073.73
2023-04-30T01:24:38.432Z,100076.78
2023-04-30T01:25:43.461Z,100072.34
2023-04-30T01:27:05.810Z,100070.63
2023-04-30T01:28:10.481Z,100077.05
2023-04-30T01:29:17.413Z,100070.05
2023-04-30T01:30:24.867Z,100070.91
2023-04-30T01:31:28.855Z,100069.97
2023-04-30T01:32:35.165Z,100066.38
2023-04-30T01:33:38.753Z,100063.06
2023-04-30T01:34:42.563Z,100062.39
2023-04-30T01:36:06.329Z,100057.19
2023-04-30T01:37:11.499Z,100052.75
2023-04-30T01:38:21.603Z,100055.39
2023-04-30T01:39:42.262Z,100058.80
2023-04-30T01:40:49.700Z,100055.97
2023-04-30T01:42:01.028Z,100059.56
2023-04-30T01:43:22.165Z,100051.44
2023-04-30T01:44:27.801Z,100048.89
2023-04-30T01:45:35.826Z,100056.73
2023-04-30T01:46:39.200Z,100052.56
2023-04-30T01:47:47.719Z,100047.09
2023-04-30T01:49:10.637Z,100052.66
2023-04-30T01:50:30.914Z,100049.06
2023-04-30T01:51:46.598Z,100046.24
2023-04-30T01:52:53.123Z,100043.69
2023-04-30T01:53:59.359Z,100039.34
2023-04-30T01:55:04.511Z,100048.98
2023-04-30T01:56:11.901Z,100038.30
2023-04-30T01:57:19.044Z,100042.25
2023-04-30T01:58:23.527Z,100043.31
2023-04-30T01:59:27.527Z,100035.75
2023-04-30T02:00:33.806Z,100043.96
2023-04-30T02:01:37.716Z,100041.31
2023-04-30T02:02:41.704Z,100035.26
2023-04-30T02:03:46.218Z,100040.67
2023-04-30T02:04:49.739Z,100040.19
2023-04-30T02:05:53.091Z,100040.24
2023-04-30T02:07:00.582Z,100031.40
2023-04-30T02:08:04.525Z,100040.00
2023-04-30T02:09:06.777Z,100039.58
2023-04-30T02:10:10.630Z,100032.67
2023-04-30T02:11:15.542Z,100046.02
2023-04-30T02:12:19.183Z,100040.24
2023-04-30T02:13:22.689Z,100040.42
2023-04-30T02:14:25.135Z,100040.61
2023-04-30T02:15:29.595Z,100043.25
2023-04-30T02:16:33.193Z,100040.61
2023-04-30T02:17:36.647Z,100040.42
2023-04-30T02:18:39.376Z,100032.97
2023-04-30T02:19:42.045Z,100042.43
2023-04-30T02:20:45.432Z,100038.72
2023-04-30T02:21:48.545Z,100044.58
2023-04-30T02:22:52.235Z,100036.16
2023-04-30T02:23:55.388Z,100036.83
2023-04-30T02:24:58.835Z,100033.33
2023-04-30T02:26:04.846Z,100035.03
2023-04-30T02:27:08.553Z,100032.03
2023-04-30T02:28:12.067Z,100033.82
2023-04-30T02:29:14.534Z,100024.36
2023-04-30T02:30:20.027Z,100027.01
2023-04-30T02:31:24.807Z,100025.30
2023-04-30T02:32:29.452Z,100026.16
2023-04-30T02:33:32.634Z,100027.50
2023-04-30T02:34:34.863Z,100023.24
2023-04-30T02:35:42.541Z,100023.15
2023-04-30T02:36:45.954Z,100025.80
2023-04-30T02:37:49.323Z,100025.97
2023-04-30T02:38:53.354Z,100015.30
2023-04-30T02:39:56.965Z,100019.34
2023-04-30T02:41:03.010Z,100016.61
2023-04-30T02:42:10.135Z,100017.85
2023-04-30T02:43:13.169Z,100015.65
2023-04-30T02:44:19.182Z,100013.59
2023-04-30T02:45:24.734Z,100012.84
2023-04-30T02:46:28.466Z,100016.78
2023-04-30T02:47:31.649Z,100017.37
2023-04-30T02:48:35.161Z,100014.05
2023-04-30T02:49:40.276Z,100015.94
2023-04-30T02:50:44.978Z,100016.06
2023-04-30T02:51:48.528Z,100008.67
2023-04-30T02:52:51.734Z,100014.55
2023-04-30T02:53:54.553Z,100009.07
2023-04-30T02:54:58.040Z,100008.58
2023-04-30T02:56:04.048Z,100007.06
2023-04-30T02:57:07.948Z,100011.72
2023-04-30T02:58:13.912Z,100010.56
2023-04-30T02:59:17.320Z,100014.36
2023-04-30T03:00:25.426Z,100011.62
2023-04-30T03:01:30.345Z,100010.10
2023-04-30T03:02:34.891Z,100009.52
2023-04-30T03:03:38.212Z,100007.64
2023-04-30T03:04:42.245Z,100001.59
2023-04-30T03:05:45.648Z,100009.06
2023-04-30T03:06:49.081Z,100008.12
2023-04-30T03:07:53.276Z,100003.30
2023-04-30T03:08:58.234Z,100012.75
2023-04-30T03:10:01.659Z,100010.10
2023-04-30T03:11:04.529Z,100006.61
2023-04-30T03:12:08.161Z,100005.48
2023-04-30T03:13:11.326Z,99996.78
2023-04-30T03:14:14.955Z,100001.68
2023-04-30T03:15:20.099Z,100000.83
2023-04-30T03:16:26.829Z,100010.05
2023-04-30T03:17:30.551Z,100007.22
2023-04-30T03:18:33.456Z,100010.23
2023-04-30T03:19:37.173Z,100011.94
2023-04-30T03:20:41.459Z,100011.56
2023-04-30T03:21:44.911Z,100007.22
2023-04-30T03:22:48.200Z,100008.80
2023-04-30T03:23:54.085Z,100004.33
2023-04-30T03:24:57.521Z,100004.42
2023-04-30T03:26:02.639Z,100003.05
2023-04-30T03:27:06.201Z,100001.05
2023-04-30T03:28:11.160Z,99998.86
2023-04-30T03:29:14.661Z,99995.27
2023-04-30T03:30:19.220Z,99996.55
2023-04-30T03:31:23.008Z,99996.42
2023-04-30T03:32:26.654Z,99994.07
2023-04-30T03:33:30.079Z,99987.92
2023-04-30T03:34:34.709Z,99993.03
2023-04-30T03:35:37.579Z,99993.03
2023-04-30T03:36:43.747Z,99991.23
2023-04-30T03:37:46.900Z,99987.26
2023-04-30T03:38:50.501Z,99991.52
2023-04-30T03:39:55.597Z,99988.87
2023-04-30T03:41:00.346Z,99997.09
2023-04-30T03:42:03.094Z,99995.20
2023-04-30T03:43:05.992Z,99992.55
2023-04-30T03:44:14.832Z,99998.33
2023-04-30T03:45:18.425Z,99998.70
2023-04-30T03:46:21.028Z,99995.88
2023-04-30T03:47:24.615Z,99992.47
2023-04-30T03:48:27.272Z,100001.35
2023-04-30T03:49:32.966Z,99992.64
2023-04-30T03:50:37.292Z,99994.73
2023-04-30T03:51:42.366Z,99993.88
2023-04-30T03:52:47.862Z,99994.99
2023-04-30T03:53:52.628Z,99996.62
2023-04-30T03:54:58.212Z,99996.05
2023-04-30T03:56:04.456Z,99992.44
2023-04-30T03:57:09.515Z,99986.36
2023-04-30T03:58:16.153Z,99991.56
2023-04-30T03:59:19.902Z,99985.32
2023-04-30T04:00:23.360Z,99986.08
2023-04-30T04:01:28.121Z,99987.69
2023-04-30T04:02:33.181Z,99989.67
2023-04-30T04:03:37.020Z,99990.77
2023-04-30T04:04:39.823Z,99987.84
2023-04-30T04:05:42.666Z,99990.86
2023-04-30T04:06:47.316Z,99992.00
2023-04-30T04:07:50.545Z,99983.81
2023-04-30T04:08:54.231Z,99979.03
2023-04-30T04:09:58.631Z,99990.25
2023-04-30T04:11:03.379Z,99985.80
2023-04-30T04:12:07.703Z,99980.08
2023-04-30T04:13:17.850Z,99986.55
2023-04-30T04:14:24.123Z,99982.59
2023-04-30T04:15:31.441Z,99978.70
2023-04-30T04:16:34.905Z,99991.34
2023-04-30T04:17:38.831Z,99980.91
2023-04-30T04:18:41.549Z,99983.88
2023-04-30T04:19:45.478Z,99979.92
2023-04-30T04:20:49.715Z,99978.45
2023-04-30T04:21:53.201Z,99983.22
2023-04-30T04:22:57.573Z,99983.13
2023-04-30T04:24:03.076Z,99979.88
2023-04-30T04:25:07.706Z,99977.95
2023-04-30T04:26:11.315Z,99977.57
2023-04-30T04:27:17.934Z,99973.31
2023-04-30T04:28:21.970Z,99978.05
2023-04-30T04:29:25.505Z,99978.41
2023-04-30T04:30:29.927Z,99979.25
2023-04-30T04:31:34.743Z,99980.32
2023-04-30T04:32:40.085Z,99974.27
2023-04-30T04:33:43.345Z,99977.38
2023-04-30T04:34:50.317Z,99976.73
2023-04-30T04:35:54.353Z,99980.97
2023-04-30T04:37:01.396Z,99981.82
2023-04-30T04:38:07.712Z,99987.33
2023-04-30T04:39:13.033Z,99980.47
2023-04-30T04:40:16.830Z,99981.82
2023-04-30T04:41:20.425Z,99977.17
2023-04-30T04:42:24.242Z,99974.18
2023-04-30T04:43:27.565Z,99978.87
2023-04-30T04:44:32.599Z,99968.91
2023-04-30T04:45:35.384Z,99976.33
2023-04-30T04:46:40.379Z,99975.92
2023-04-30T04:47:43.900Z,99977.38
2023-04-30T04:48:47.872Z,99971.56
2023-04-30T04:49:51.169Z,99974.62
2023-04-30T04:50:57.149Z,99974.97
2023-04-30T04:52:00.370Z,99969.55
2023-04-30T04:53:04.096Z,99969.75
2023-04-30T04:54:08.465Z,99969.86
2023-04-30T04:55:13.940Z,99976.66
2023-04-30T04:56:17.651Z,99972.02
2023-04-30T04:57:20.404Z,99980.17
2023-04-30T04:58:23.733Z,99967.96
2023-04-30T04:59:30.097Z,99965.31
2023-04-30T05:00:37.393Z,99970.72
2023-04-30T05:01:40.869Z,99972.33
2023-04-30T05:02:44.365Z,99967.02
2023-04-30T05:03:47.802Z,99966.58
2023-04-30T05:04:52.816Z,99959.23
2023-04-30T05:05:57.359Z,99966.47
2023-04-30T05:07:02.392Z,99964.14
2023-04-30T05:08:06.638Z,99965.02
2023-04-30T05:09:12.074Z,99966.80
2023-04-30T05:10:20.374Z,99962.98
2023-04-30T05:11:23.785Z,99962.23
2023-04-30T05:12:27.664Z,99968.89
2023-04-30T05:13:31.684Z,99964.02
2023-04-30T05:14:33.937Z,99962.73
2023-04-30T05:15:37.874Z,99960.53
2023-04-30T05:16:40.796Z,99957.88
2023-04-30T05:17:44.075Z,99968.05
2023-04-30T05:18:47.538Z,99960.64
2023-04-30T05:19:50.403Z,99954.27
2023-04-30T05:20:53.741Z,99956.09
2023-04-30T05:21:57.215Z,99954.27
2023-04-30T05:23:00.749Z,99955.44
2023-04-30T05:24:04.537Z,99959.02
2023-04-30T05:25:08.359Z,99955.48
2023-04-30T05:26:10.924Z,99948.05
2023-04-30T05:27:14.313Z,99955.83
2023-04-30T05:28:17.426Z,99943.16
2023-04-30T05:29:21.045Z,99946.28
2023-04-30T05:30:24.629Z,99945.11
2023-04-30T05:31:27.498Z,99948.26
2023-04-30T05:32:30.640Z,99944.15
2023-04-30T05:33:34.726Z,99941.67
2023-04-30T05:34:38.125Z,99953.10
2023-04-30T05:35:41.839Z,99940.34
2023-04-30T05:36:45.345Z,99943.44
2023-04-30T05:37:49.169Z,99948.00
2023-04-30T05:38:52.470Z,99939.13
2023-04-30T05:39:55.972Z,99944.97
2023-04-30T05:40:59.680Z,99952.99
2023-04-30T05:42:03.731Z,99941.58
2023-04-30T05:43:13.906Z,99940.34
2023-04-30T05:44:17.931Z,99944.64
2023-04-30T05:45:23.491Z,99948.53
2023-04-30T05:46:26.833Z,99944.59
2023-04-30T05:47:30.735Z,99933.96
2023-04-30T05:48:34.229Z,99944.53
2023-04-30T05:49:38.060Z,99941.48
2023-04-30T05:50:41.667Z,99945.21
2023-04-30T05:51:44.023Z,99946.78
2023-04-30T05:52:49.537Z,99941.48
2023-04-30T05:53:58.413Z,99938.34
2023-04-30T05:55:01.777Z,99942.41
2023-04-30T05:56:08.173Z,99940.40
2023-04-30T05:57:11.071Z,99941.67
2023-04-30T05:58:14.664Z,99943.25
2023-04-30T05:59:18.595Z,99936.86
2023-04-30T06:00:25.189Z,99941.67
2023-04-30T06:01:29.800Z,99941.19
2023-04-30T06:02:33.283Z,99927.64
2023-04-30T06:03:36.042Z,99935.88
2023-04-30T06:04:39.568Z,99936.02
2023-04-30T06:05:43.748Z,99931.88
2023-04-30T06:06:46.470Z,99930.07
2023-04-30T06:07:50.933Z,99925.89
2023-04-30T06:08:56.931Z,99930.36
2023-04-30T06:10:00.436Z,99930.47
2023-04-30T06:11:04.663Z,99928.03
2023-04-30T06:12:07.335Z,99938.70
2023-04-30T06:13:10.663Z,99933.87
2023-04-30T06:14:14.342Z,99934.17
2023-04-30T06:15:17.853Z,99925.61
2023-04-30T06:16:20.674Z,99922.09
2023-04-30T06:17:26.138Z,99920.91
2023-04-30T06:18:28.678Z,99922.83
2023-04-30T06:19:31.976Z,99926.85
2023-04-30T06:20:35.059Z,99927.08
2023-04-30T06:21:38.357Z,99923.09
2023-04-30T06:22:41.447Z,99918.39
2023-04-30T06:23:44.946Z,99923.82
2023-04-30T06:24:48.129Z,99916.92
2023-04-30T06:25:51.360Z,99919.34
2023-04-30T06:26:55.308Z,99923.48
2023-04-30T06:27:59.899Z,99924.33
2023-04-30T06:29:05.296Z,99923.09
2023-04-30T06:30:09.849Z,99920.11
2023-04-30T06:31:14.179Z,99923.04
2023-04-30T06:32:18.799Z,99920.25
2023-04-30T06:33:22.346Z,99920.48
2023-04-30T06:34:25.845Z,99907.41
2023-04-30T06:35:28.406Z,99912.11
2023-04-30T06:36:31.193Z,99909.45
2023-04-30T06:37:35.424Z,99916.34
2023-04-30T06:38:40.219Z,99913.48
2023-04-30T06:39:43.472Z,99905.92
2023-04-30T06:40:46.978Z,99910.17
2023-04-30T06:41:52.779Z,99900.14
2023-04-30T06:42:59.313Z,99913.02
2023-04-30T06:44:04.599Z,99900.72
2023-04-30T06:45:08.102Z,99907.35
2023-04-30T06:46:12.991Z,99904.00
2023-04-30T06:47:17.307Z,99903.15
2023-04-30T06:48:21.537Z,99900.02
2023-04-30T06:49:24.660Z,99904.73
2023-04-30T06:50:27.388Z,99899.75
2023-04-30T06:51:31.743Z,99895.17
2023-04-30T06:52:35.663Z,99893.47
2023-04-30T06:53:38.742Z,99898.06
2023-04-30T06:54:43.546Z,99896.94
2023-04-30T06:55:49.521Z,99897.09
2023-04-30T06:56:53.340Z,99897.95
2023-04-30T06:57:58.027Z,99895.16
2023-04-30T06:59:01.417Z,99895.05
2023-04-30T07:00:09.274Z,99897.13
2023-04-30T07:01:12.543Z,99890.16
2023-04-30T07:02:17.135Z,99891.77
2023-04-30T07:03:21.128Z,99888.50
2023-04-30T07:04:25.393Z,99885.72
2023-04-30T07:05:29.321Z,99882.83
2023-04-30T07:06:32.671Z,99887.44
2023-04-30T07:07:35.385Z,99889.38
2023-04-30T07:08:41.329Z,99887.80
2023-04-30T07:09:45.006Z,99881.86
2023-04-30T07:10:48.289Z,99878.59
2023-04-30T07:11:53.690Z,99871.70
2023-04-30T07:12:57.408Z,99880.27
2023-04-30T07:14:00.621Z,99874.35
2023-04-30T07:15:07.688Z,99871.92
2023-04-30T07:16:14.510Z,99883.78
2023-04-30T07:17:18.235Z,99869.64
2023-04-30T07:18:21.196Z,99867.47
2023-04-30T07:19:26.472Z,99875.95
2023-04-30T07:20:32.069Z,99871.22
2023-04-30T07:21:34.321Z,99873.77
2023-04-30T07:22:37.085Z,99865.63
2023-04-30T07:23:40.492Z,99872.06
2023-04-30T07:24:43.149Z,99867.20
2023-04-30T07:25:46.667Z,99864.08
2023-04-30T07:26:50.171Z,99862.39
2023-04-30T07:27:53.781Z,99861.78
2023-04-30T07:28:59.094Z,99867.71
2023-04-30T07:31:18.094Z,99870.95
2023-04-30T07:32:21.626Z,99865.66
2023-04-30T07:33:25.274Z,99859.37
2023-04-30T07:34:27.754Z,99855.48
2023-04-30T07:35:31.705Z,99864.42
2023-04-30T07:36:34.030Z,99864.06
2023-04-30T07:37:39.076Z,99861.37
2023-04-30T07:38:42.512Z,99862.48
2023-04-30T07:39:45.954Z,99861.17
2023-04-30T07:40:49.316Z,99856.92
2023-04-30T07:41:52.636Z,99859.82
2023-04-30T07:42:57.143Z,99864.18
2023-04-30T07:44:00.298Z,99858.38
2023-04-30T07:45:05.112Z,99855.73
2023-04-30T07:46:08.630Z,99867.11
2023-04-30T07:47:14.430Z,99860.81
2023-04-30T07:48:18.661Z,99857.83
2023-04-30T07:49:23.518Z,99856.55
2023-04-30T07:50:32.258Z,99867.33
2023-04-30T07:51:39.487Z,99864.39
2023-04-30T07:52:42.173Z,99862.10
2023-04-30T07:53:46.915Z,99867.51
2023-04-30T07:54:50.778Z,99862.84
2023-04-30T07:55:54.260Z,99861.75
2023-04-30T07:56:56.978Z,99862.79
2023-04-30T07:58:01.417Z,99863.78
2023-04-30T07:59:04.775Z,99867.02
2023-04-30T08:00:08.909Z,99860.55
2023-04-30T08:01:14.077Z,99871.87
2023-04-30T08:02:18.270Z,99865.17
2023-04-30T08:03:21.925Z,99868.91
2023-04-30T08:04:25.751Z,99861.67
2023-04-30T08:05:29.467Z,99875.09
2023-04-30T08:06:31.844Z,99858.28
2023-04-30T08:07:36.786Z,99867.52
2023-04-30T08:08:41.318Z,99865.91
2023-04-30T08:09:44.337Z,99860.50
2023-04-30T08:10:51.032Z,99860.68
2023-04-30T08:11:54.661Z,99858.86
2023-04-30T08:12:58.944Z,99873.67
2023-04-30T08:14:03.253Z,99863.03
2023-04-30T08:15:09.790Z,99859.56
2023-04-30T08:16:14.278Z,99866.17
2023-04-30T08:17:17.558Z,99861.80
2023-04-30T08:18:21.670Z,99865.63
2023-04-30T08:19:25.126Z,99872.52
2023-04-30T08:20:29.080Z,99873.41
2023-04-30T08:21:33.810Z,99876.89
2023-04-30T08:22:38.286Z,99876.08
2023-04-30T08:23:41.895Z,99869.23
2023-04-30T08:24:45.190Z,99873.56
2023-04-30T08:25:47.962Z,99870.73
2023-04-30T08:26:54.715Z,99870.80
2023-04-30T08:27:58.093Z,99889.88
2023-04-30T08:29:02.174Z,99882.34
2023-04-30T08:30:07.958Z,99869.28
2023-04-30T08:31:11.469Z,99868.88
2023-04-30T08:32:16.023Z,99876.63
2023-04-30T08:33:22.191Z,99870.30
2023-04-30T08:34:25.611Z,99867.34
2023-04-30T08:35:31.078Z,99873.53
2023-04-30T08:36:35.228Z,99885.20
2023-04-30T08:37:38.002Z,99875.89
2023-04-30T08:38:41.509Z,99889.31
2023-04-30T08:39:44.638Z,99884.47
2023-04-30T08:40:51.932Z,99889.41
2023-04-30T08:41:57.662Z,99896.28
2023-04-30T08:43:03.051Z,99889.64
2023-04-30T08:44:08.335Z,99888.11
2023-04-30T08:45:12.806Z,99884.20
2023-04-30T08:46:18.711Z,99889.71
2023-04-30T08:47:24.184Z,99902.06
2023-04-30T08:48:28.097Z,99889.70
2023-04-30T08:49:33.424Z,99887.66
2023-04-30T08:50:37.091Z,99879.24
2023-04-30T08:51:40.697Z,99872.48
2023-04-30T08:52:44.729Z,99887.67
2023-04-30T08:53:53.479Z,99875.87
2023-04-30T08:54:58.315Z,99874.52
2023-04-30T08:56:01.668Z,99876.76
2023-04-30T08:57:06.052Z,99880.58
2023-04-30T08:58:10.826Z,99878.09
2023-04-30T08:59:14.471Z,99878.06
2023-04-30T09:00:18.368Z,99885.23
2023-04-30T09:01:23.465Z,99875.69
2023-04-30T09:02:25.980Z,99883.27
2023-04-30T09:03:32.551Z,99875.23
2023-04-30T09:04:36.555Z,99877.00
2023-04-30T09:05:40.685Z,99878.09
2023-04-30T09:06:43.414Z,99882.08
2023-04-30T09:08:01.580Z,99876.42
2023-04-30T09:08:55.152Z,99883.88
2023-04-30T09:10:00.334Z,99869.17
2023-04-30T09:11:04.261Z,99877.27
2023-04-30T09:12:20.031Z,99875.88
2023-04-30T09:13:23.801Z,99874.80
2023-04-30T09:14:27.459Z,99875.39
2023-04-30T09:15:32.364Z,99880.07
2023-04-30T09:16:52.633Z,99875.62
2023-04-30T09:17:59.803Z,99872.16
2023-04-30T09:19:03.147Z,99859.83
2023-04-30T09:21:33.364Z,99867.73
2023-04-30T09:22:37.705Z,99869.92
2023-04-30T09:24:00.956Z,99864.23
2023-04-30T09:25:04.186Z,99875.31
2023-04-30T09:26:07.338Z,99855.86
2023-04-30T09:27:17.776Z,99856.00
2023-04-30T09:28:27.368Z,99858.76
2023-04-30T09:29:37.717Z,99874.58
2023-04-30T09:30:42.962Z,99857.70
2023-04-30T09:31:47.603Z,99866.41
2023-04-30T09:32:58.229Z,99872.59
2023-04-30T09:34:00.698Z,99859.56
2023-04-30T09:35:03.030Z,99862.66
2023-04-30T09:36:10.344Z,99853.45
2023-04-30T09:37:14.227Z,99860.34
2023-04-30T09:38:30.387Z,99865.07
2023-04-30T09:39:37.222Z,99865.55
2023-04-30T09:41:56.870Z,99850.79
2023-04-30T09:43:01.967Z,99858.98
2023-04-30T09:44:05.359Z,99857.87
2023-04-30T09:45:12.810Z,99874.20
2023-04-30T09:46:21.464Z,99863.89
2023-04-30T09:47:26.749Z,99856.59
2023-04-30T09:48:29.174Z,99855.50
2023-04-30T09:49:35.609Z,99859.87
2023-04-30T09:50:42.725Z,99861.70
2023-04-30T09:51:57.379Z,99867.30
2023-04-30T09:53:10.179Z,99860.48
2023-04-30T09:54:18.044Z,99857.84
2023-04-30T09:55:23.525Z,99851.72
2023-04-30T09:56:27.455Z,99854.92
2023-04-30T09:57:33.149Z,99847.45
2023-04-30T09:58:39.533Z,99862.54
2023-04-30T09:59:44.875Z,99845.68
2023-04-30T10:00:50.217Z,99852.14
2023-04-30T10:01:53.422Z,99854.79
2023-04-30T10:02:58.831Z,99841.57
2023-04-30T10:04:02.315Z,99835.26
2023-04-30T10:05:06.902Z,99842.58
2023-04-30T10:06:13.336Z,99849.17
2023-04-30T10:07:18.782Z,99847.76
2023-04-30T10:08:26.950Z,99845.68
2023-04-30T10:09:33.318Z,99841.84
2023-04-30T10:10:39.651Z,99844.82
2023-04-30T10:11:44.304Z,99853.95
2023-04-30T10:12:52.182Z,99847.63
2023-04-30T10:13:56.848Z,99847.49
2023-04-30T10:15:02.237Z,99846.73
2023-04-30T10:16:07.453Z,99839.03
2023-04-30T10:17:12.795Z,99839.03
2023-04-30T10:18:23.807Z,99829.34
2023-04-30T10:19:30.160Z,99839.20
2023-04-30T10:20:35.327Z,99851.37
2023-04-30T10:21:39.959Z,99839.21
2023-04-30T10:22:44.524Z,99832.80
2023-04-30T10:23:49.310Z,99838.32
2023-04-30T10:24:55.372Z,99827.92
2023-04-30T10:25:59.533Z,99823.42
2023-04-30T10:27:03.873Z,99825.97
2023-04-30T10:28:08.839Z,99830.30
2023-04-30T10:29:13.483Z,99828.07
2023-04-30T10:30:17.229Z,99826.97
2023-04-30T10:31:21.869Z,99825.25
2023-04-30T10:32:27.136Z,99827.77
2023-04-30T10:33:35.004Z,99819.63
2023-04-30T10:34:54.555Z,99820.20
2023-04-30T10:35:59.655Z,99828.17
2023-04-30T10:37:07.376Z,99818.65
2023-04-30T10:39:25.769Z,99818.77
2023-04-30T10:40:29.094Z,99824.27
2023-04-30T10:41:32.241Z,99816.68
2023-04-30T10:42:36.318Z,99827.09
2023-04-30T10:43:38.744Z,99832.70
2023-04-30T10:44:42.075Z,99831.02
2023-04-30T10:45:47.464Z,99816.53
2023-04-30T10:46:53.022Z,99822.70
2023-04-30T10:47:57.724Z,99819.20
2023-04-30T10:49:02.334Z,99827.94
2023-04-30T10:50:06.074Z,99820.47
2023-04-30T10:51:09.444Z,99829.64
2023-04-30T10:52:13.626Z,99828.06
2023-04-30T10:53:18.942Z,99824.55
2023-04-30T10:54:30.613Z,99825.80
2023-04-30T10:55:34.535Z,99824.53
2023-04-30T10:56:38.146Z,99834.11
2023-04-30T10:57:43.832Z,99835.81
2023-04-30T10:58:47.767Z,99829.33
2023-04-30T10:59:53.367Z,99830.31
2023-04-30T11:01:04.844Z,99821.30
2023-04-30T11:02:11.152Z,99827.22
2023-04-30T11:03:15.260Z,99830.33
2023-04-30T11:04:18.503Z,99823.13
2023-04-30T11:05:23.948Z,99814.91
2023-04-30T11:06:33.477Z,99825.89
2023-04-30T11:07:37.145Z,99823.22
2023-04-30T11:08:42.482Z,99817.64
2023-04-30T11:09:47.783Z,99826.37
2023-04-30T11:10:59.338Z,99816.20
2023-04-30T11:12:06.278Z,99829.97
2023-04-30T11:13:12.476Z,99826.63
2023-04-30T11:14:17.681Z,99827.86
2023-04-30T11:15:21.893Z,99838.74
2023-04-30T11:16:31.257Z,99829.59
2023-04-30T11:17:35.174Z,99826.88
2023-04-30T11:18:43.005Z,99826.53
2023-04-30T11:19:50.660Z,99821.02
2023-04-30T11:20:56.381Z,99829.62
2023-04-30T11:22:07.894Z,99824.57
2023-04-30T11:23:19.738Z,99824.20
2023-04-30T11:24:23.621Z,99823.85
2023-04-30T11:25:27.923Z,99826.06
2023-04-30T11:26:31.246Z,99836.16
2023-04-30T11:27:35.772Z,99817.30
2023-04-30T11:28:40.153Z,99812.31
2023-04-30T11:29:45.468Z,99823.80
2023-04-30T11:30:51.396Z,99811.94
2023-04-30T11:31:55.367Z,99810.25
2023-04-30T11:33:03.382Z,99808.34
2023-04-30T11:34:06.410Z,99806.63
2023-04-30T11:35:10.438Z,99797.20
2023-04-30T11:36:14.873Z,99806.12
2023-04-30T11:37:25.683Z,99803.84
2023-04-30T11:38:34.917Z,99803.95
2023-04-30T11:39:39.617Z,99808.21
2023-04-30T11:40:43.407Z,99804.13
2023-04-30T11:41:46.907Z,99799.45
2023-04-30T11:42:49.385Z,99793.67
2023-04-30T11:43:52.787Z,99789.54
2023-04-30T11:45:08.239Z,99796.73
2023-04-30T11:46:12.566Z,99793.48
2023-04-30T11:47:19.203Z,99791.23
2023-04-30T11:48:24.773Z,99794.42
2023-04-30T11:49:29.001Z,99788.63
2023-04-30T11:50:35.329Z,99790.82
2023-04-30T11:51:39.559Z,99787.72
2023-04-30T11:52:45.050Z,99788.98
2023-04-30T11:53:49.933Z,99794.06
2023-04-30T11:54:55.099Z,99787.30
2023-04-30T11:55:59.116Z,99775.19
2023-04-30T11:57:05.035Z,99782.64
2023-04-30T11:58:10.209Z,99780.16
2023-04-30T11:59:12.598Z,99788.95
2023-04-30T12:00:20.253Z,99787.77
2023-04-30T12:01:24.482Z,99781.85
2023-04-30T12:02:30.207Z,99794.27
2023-04-30T12:03:33.494Z,99787.20
2023-04-30T12:04:40.213Z,99791.11
2023-04-30T12:05:46.253Z,99785.41
2023-04-30T12:06:50.647Z,99801.28
2023-04-30T12:07:58.690Z,99794.27
2023-04-30T12:09:03.792Z,99790.16
2023-04-30T12:10:07.882Z,99795.33
2023-04-30T12:11:26.948Z,99797.86
2023-04-30T12:12:31.191Z,99793.26
2023-04-30T12:13:34.748Z,99793.95
2023-04-30T12:14:37.570Z,99805.81
2023-04-30T12:15:42.009Z,99790.72
2023-04-30T12:16:46.529Z,99804.52
2023-04-30T12:17:49.566Z,99792.87
2023-04-30T12:18:54.913Z,99795.12
2023-04-30T12:20:00.173Z,99790.68
2023-04-30T12:21:06.186Z,99783.95
2023-04-30T12:22:10.586Z,99792.68
2023-04-30T12:23:14.481Z,99787.63
2023-04-30T12:24:19.069Z,99784.13
2023-04-30T12:25:23.346Z,99782.45
2023-04-30T12:26:40.401Z,99780.89
2023-04-30T12:27:47.186Z,99774.53
2023-04-30T12:28:53.415Z,99781.20
2023-04-30T12:29:57.211Z,99775.58
2023-04-30T12:30:59.894Z,99770.41
2023-04-30T12:32:03.996Z,99766.03
2023-04-30T12:33:10.432Z,99764.95
2023-04-30T12:34:15.263Z,99758.09
2023-04-30T12:35:19.240Z,99761.44
2023-04-30T12:36:23.750Z,99763.41
2023-04-30T12:37:27.545Z,99761.72
2023-04-30T12:38:32.368Z,99750.02
2023-04-30T12:39:37.119Z,99763.44
2023-04-30T12:40:43.278Z,99764.48
2023-04-30T12:41:49.406Z,99766.08
2023-04-30T12:42:54.037Z,99774.39
2023-04-30T12:44:14.867Z,99788.31